Latest Weather Observations for Mount Hotham

IDV60801

Issued at 2:42 pm EST Wednesday 14 April 2021 (issued every 10 minutes, with the page automatically refreshed every 10 minutes)

About weather observations | Map of weather stations | Latest weather observations for VIC | Other Formats
Station Details ID: 083085 Name: MOUNT HOTHAM Lat: -36.98 Lon: 147.13 Height: 1849.0 m
Data from the previous 72 hours. | See also: Recent months at Mount Hotham
Date/Time
EST
Temp
°C
App
Temp
°C
Dew
Point
°C
Rel
Hum
%
Delta-T
°C
Wind Press
QNH
hPa
Press
MSL
hPa
Rain since
9am
mm
Dir  Spd
km/h
Gust
km/h
Spd
kts
Gust
kts
14/02:30pm 4.7 -2.9 2.7 87 0.9 NW 32 44 17 24 - - 0.4
14/02:00pm 5.1 -2.5 3.0 86 1.0 NW 32 50 17 27 - - 0.4
14/01:32pm 4.3 -4.6 2.8 90 0.7 NW 39 57 21 31 - - 0.4
14/01:30pm 4.3 -5.0 2.8 90 0.7 NW 41 57 22 31 - - 0.4
14/01:04pm 3.6 -4.0 2.6 93 0.5 NNW 32 50 17 27 - - 0.4
14/01:00pm 3.7 -4.1 2.7 93 0.5 NNW 33 50 18 27 - - 0.4
14/12:30pm 3.3 -5.1 1.8 90 0.7 NNW 35 48 19 26 - - 0.4
14/12:00pm 2.8 -5.0 1.5 91 0.6 NNW 32 46 17 25 - - 0.4
14/11:36am 2.4 -6.0 1.5 94 0.4 NNW 35 54 19 29 - - 0.2
14/11:30am 2.4 -6.0 1.5 94 0.4 NNW 35 48 19 26 - - 0.2
14/11:04am 2.7 -7.0 0.6 86 0.9 NNW 41 59 22 32 - - 0.2
14/11:00am 2.8 -7.4 0.7 86 0.9 NNW 44 59 24 32 - - 0.2
14/10:30am 2.8 -7.8 0.9 87 0.8 NNW 46 72 25 39 - - 0.2
14/10:00am 2.9 -7.3 1.1 88 0.8 NNW 44 63 24 34 - - 0.0
14/09:30am 3.4 -6.6 0.8 83 1.1 NNW 43 70 23 38 - - 0.0
14/09:00am 3.5 -7.4 1.1 84 1.0 NNW 48 72 26 39 - - 0.2
14/08:30am 3.1 -7.8 1.2 87 0.8 NNW 48 69 26 37 - - 0.2
14/08:00am 3.1 -8.2 1.5 89 0.7 NNW 50 80 27 43 - - 0.2
14/07:30am 3.1 -8.3 0.7 84 1.0 NNW 50 76 27 41 - - 0.2
14/07:00am 3.1 -8.6 0.8 85 1.0 NNW 52 76 28 41 - - 0.2
14/06:30am 2.9 -9.6 1.0 87 0.8 NNW 56 85 30 46 - - 0.2
14/06:00am 2.4 -9.7 0.9 90 0.6 NNW 54 76 29 41 - - 0.2
14/05:31am 2.5 -9.2 1.0 90 0.6 NNW 52 70 28 38 - - 0.0
14/05:30am 2.6 -9.5 0.8 88 0.8 NNW 54 70 29 38 - - 0.0
14/05:00am 2.3 -9.8 0.8 90 0.6 NNW 54 78 29 42 - - 0.0
14/04:30am 3.1 -9.5 0.0 80 1.3 NNW 56 83 30 45 - - 0.0
14/04:00am 3.8 -9.1 -0.6 73 1.8 NNW 57 83 31 45 - - 0.0
14/03:30am 4.1 -9.6 -1.1 69 2.2 NNW 61 89 33 48 - - 0.0
14/03:00am 3.9 -10.1 -0.5 73 1.9 NNW 63 96 34 52 - - 0.0
14/02:30am 4.1 -10.7 -0.5 72 1.9 NNW 67 91 36 49 - - 0.0
14/02:00am 4.4 -11.7 -0.6 70 2.1 NNW 74 106 40 57 - - 0.0
14/01:30am 4.5 -10.9 -0.5 70 2.1 NNW 70 102 38 55 - - 0.0
14/01:00am 4.4 -11.3 -0.2 72 2.0 NNW 72 95 39 51 - - 0.0
14/12:30am 4.1 -11.6 -0.1 74 1.8 NNW 72 100 39 54 - - 0.0
14/12:00am 3.8 -11.2 0.3 78 1.5 NNW 69 93 37 50 - - 0.0
 
Date/Time
EST
Temp
°C
App
Temp
°C
Dew
Point
°C
Rel
Hum
%
Delta-T
°C
Wind Press
QNH
hPa
Press
MSL
hPa
Rain since
9am
mm
Dir  Spd
km/h
Gust
km/h
Spd
kts
Gust
kts
13/11:30pm 3.8 -12.2 0.3 78 1.5 NNW 74 96 40 52 - - 0.0
13/11:00pm 3.8 -11.8 0.1 77 1.6 NNW 72 100 39 54 - - 0.0
13/10:55pm 3.9 -11.2 0.1 76 1.6 NNW 69 100 37 54 - - 0.0
13/10:33pm 3.9 -8.9 0.2 77 1.6 NNW 57 78 31 42 - - 0.0
13/10:30pm 4.0 -8.8 0.2 76 1.6 NNW 57 74 31 40 - - 0.0
13/10:00pm 3.7 -9.4 0.6 80 1.3 NNW 59 78 32 42 - - 0.0
13/09:30pm 3.3 -9.5 0.4 81 1.2 NNW 57 76 31 41 - - 0.0
13/09:00pm 3.2 -11.0 0.6 83 1.1 NNW 65 83 35 45 - - 0.0
13/08:30pm 2.7 -10.3 1.2 90 0.7 NNW 59 80 32 43 - - 0.0
13/08:07pm 2.5 -9.8 1.8 95 0.3 N 56 74 30 40 - - 0.0
13/08:00pm 2.2 -9.8 1.6 96 0.3 N 54 70 29 38 - - 0.0
13/07:31pm 2.4 -10.0 1.2 92 0.5 NNW 56 74 30 40 - - 0.0
13/07:30pm 2.4 -10.2 1.2 92 0.5 NNW 57 74 31 40 - - 0.0
13/07:00pm 2.2 -9.1 1.0 92 0.5 NNW 50 70 27 38 - - 0.0
13/06:53pm 2.4 -9.3 0.8 89 0.7 NNW 52 70 28 38 - - 0.0
13/06:30pm 2.2 -9.5 1.3 94 0.4 N 52 65 28 35 - - 0.0
13/06:00pm 2.2 -8.0 0.9 91 0.6 NNW 44 57 24 31 - - 0.0
13/05:30pm 2.3 -8.3 0.5 88 0.8 N 46 59 25 32 - - 0.0
13/05:00pm 2.4 -7.7 1.5 94 0.4 N 44 57 24 31 - - 0.0
13/04:46pm 2.5 -7.1 1.3 92 0.5 NNW 41 59 22 32 - - 0.0
13/04:30pm 2.8 -7.2 1.2 89 0.7 NNW 43 54 23 29 - - 0.0
13/04:00pm 2.8 -7.7 1.2 89 0.7 NNW 46 57 25 31 - - 0.0
13/03:30pm 3.4 -6.5 1.4 87 0.9 NNW 43 59 23 32 - - 0.0
13/03:23pm 3.3 -6.4 0.5 82 1.2 NNW 41 59 22 32 - - 0.0
13/03:00pm 3.1 -6.1 1.5 89 0.7 NNW 39 54 21 29 - - 0.0
13/02:30pm 3.3 -5.1 1.8 90 0.7 N 35 43 19 23 - - 0.0
13/02:00pm 3.0 -5.3 2.3 95 0.3 NNW 35 46 19 25 - - 0.0
13/01:30pm 3.1 -5.2 2.1 93 0.4 N 35 50 19 27 - - 0.0
13/01:00pm 3.1 -5.3 1.3 88 0.8 NNW 35 44 19 24 - - 0.0
13/12:30pm 3.4 -5.4 1.6 88 0.8 NNW 37 48 20 26 - - 0.0
13/12:00pm 3.7 -5.0 2.1 89 0.7 NNW 37 50 20 27 - - 0.0
13/11:30am 3.6 -4.3 2.4 92 0.5 NNW 33 43 18 23 - - 0.0
13/11:00am 3.0 -5.8 1.2 88 0.8 NNW 37 46 20 25 - - 0.0
13/10:30am 2.8 -6.3 1.6 92 0.5 NNW 39 48 21 26 - - 0.0
13/10:00am 1.7 -8.0 0.7 93 0.4 NNW 41 54 22 29 - - 0.0
13/09:30am 1.8 -7.1 0.5 91 0.5 NNW 37 44 20 24 - - 0.0
13/09:00am 1.6 -6.7 0.0 89 0.7 N 33 43 18 23 - - 0.4
13/08:30am 1.3 -6.5 -0.5 88 0.7 N 30 35 16 19 - - 0.4
13/08:00am 0.9 -6.5 -0.7 89 0.6 N 28 37 15 20 - - 0.4
13/07:30am 1.0 -4.9 -0.8 88 0.7 N 20 28 11 15 - - 0.4
13/07:00am 0.4 -5.9 -1.2 89 0.7 NNW 22 28 12 15 - - 0.4
13/06:30am 0.0 -6.0 -1.9 87 0.7 NNW 20 24 11 13 - - 0.4
13/06:00am 0.1 -6.0 -2.1 85 0.9 NNW 20 28 11 15 - - 0.4
13/05:30am 0.1 -6.0 -2.6 82 1.0 NNW 20 24 11 13 - - 0.4
13/05:00am 0.2 -6.0 -3.3 77 1.3 NNW 20 24 11 13 - - 0.4
13/04:30am 0.7 -6.2 -2.9 77 1.4 NNW 24 28 13 15 - - 0.4
13/04:00am 1.0 -6.5 -4.4 67 2.1 NNW 26 30 14 16 - - 0.4
13/03:30am 0.9 -7.1 -5.5 62 2.4 NNW 28 33 15 18 - - 0.4
13/03:00am 1.1 -7.3 -5.6 61 2.5 NNW 30 33 16 18 - - 0.4
13/02:30am 1.3 -5.5 -5.6 60 2.6 NNW 22 24 12 13 - - 0.4
13/02:00am 1.1 -4.8 -5.8 60 2.5 NNW 17 20 9 11 - - 0.4
13/01:30am 0.5 -4.7 -5.7 63 2.2 N 13 17 7 9 - - 0.4
13/01:00am 1.3 -2.7 -5.4 61 2.5 N 7 13 4 7 - - 0.4
13/12:30am 0.2 -3.5 -3.3 77 1.3 N 7 11 4 6 - - 0.4
13/12:00am 0.2 -2.9 0.1 99 0.0 N 6 13 3 7 - - 0.4
 
Date/Time
EST
Temp
°C
App
Temp
°C
Dew
Point
°C
Rel
Hum
%
Delta-T
°C
Wind Press
QNH
hPa
Press
MSL
hPa
Rain since
9am
mm
Dir  Spd
km/h
Gust
km/h
Spd
kts
Gust
kts
12/11:30pm -1.4 -4.7 -1.5 99 0.0 ENE 6 11 3 6 - - 0.4
12/11:00pm -1.4 -5.3 -1.5 99 0.0 ESE 9 15 5 8 - - 0.4
12/10:30pm -1.3 -5.9 -1.4 99 0.0 SE 13 15 7 8 - - 0.4
12/10:00pm -0.9 -6.6 -1.0 99 0.0 SSE 19 24 10 13 - - 0.4
12/09:30pm -0.8 -6.5 -0.9 99 0.0 SSE 19 24 10 13 - - 0.4
12/09:00pm -0.5 -6.2 -0.6 99 0.0 SSE 19 22 10 12 - - 0.4
12/08:30pm -0.5 -6.4 -0.6 99 0.0 SSE 20 26 11 14 - - 0.4
12/08:00pm -0.2 -5.5 -0.3 99 0.0 SSE 17 24 9 13 - - 0.4
12/07:30pm -0.2 -5.8 -0.3 99 0.0 SSE 19 24 10 13 - - 0.4
12/07:00pm -0.3 -5.6 -0.4 99 0.0 S 17 20 9 11 - - 0.4
12/06:30pm 0.3 -4.5 0.2 99 0.0 SSE 15 19 8 10 - - 0.4
12/06:00pm 0.2 -3.1 0.1 99 0.0 SSE 7 13 4 7 - - 0.4
12/05:30pm 0.3 -2.4 0.2 99 0.0 S 4 6 2 3 - - 0.4
12/05:00pm 0.5 -3.9 0.4 99 0.0 S 13 15 7 8 - - 0.4
12/04:30pm 0.6 -3.8 0.5 99 0.0 SSE 13 19 7 10 - - 0.4
12/04:00pm 0.5 -4.3 0.4 99 0.0 S 15 22 8 12 - - 0.4
12/03:30pm 0.1 -5.5 0.0 99 0.0 SSE 19 22 10 12 - - 0.4
12/03:00pm 0.0 -4.5 -0.1 99 0.0 S 13 24 7 13 - - 0.4
12/02:30pm 0.0 -5.8 -0.1 99 0.0 S 20 30 11 16 - - 0.4
12/02:00pm 0.0 -6.9 -0.1 99 0.0 SSE 26 37 14 20 - - 0.4
12/01:30pm 0.0 -8.1 -0.1 99 0.0 SSE 32 39 17 21 - - 0.4
12/01:00pm -0.1 -8.4 -0.2 99 0.0 SSE 33 41 18 22 - - 0.4
12/12:30pm -0.1 -10.3 -0.2 99 0.0 S 43 54 23 29 - - 0.4
12/12:00pm 0.0 -11.1 -0.1 99 0.0 SSE 48 57 26 31 - - 0.4
12/11:30am -0.2 -10.6 -0.3 99 0.0 S 44 50 24 27 - - 0.4
12/11:00am -0.4 -11.2 -0.5 99 0.0 SSE 46 57 25 31 - - 0.4
12/10:30am -0.6 -10.5 -0.7 99 0.0 SSE 41 50 22 27 - - 0.4
12/10:00am -0.7 -11.9 -0.8 99 0.0 SSE 48 59 26 32 - - 0.0
12/09:30am -0.7 -11.9 -0.8 99 0.0 SSE 48 63 26 34 - - 0.0
12/09:00am -1.0 -14.0 -1.1 99 0.0 SSE 57 72 31 39 - - 0.2
12/08:51am -1.1 -14.5 -1.2 99 0.0 SSE 59 78 32 42 - - 0.2
12/08:30am -1.2 -14.0 -1.3 99 0.0 SSE 56 70 30 38 - - 0.2
12/08:01am -1.4 -14.8 -1.5 99 0.0 SSE 59 78 32 42 - - 0.2
12/08:00am -1.5 -15.3 -1.6 99 0.0 SSE 61 78 33 42 - - 0.2
12/07:35am -1.7 -12.1 -1.8 99 0.0 SSE 43 70 23 38 - - 0.2
12/07:33am -1.8 -11.1 -1.9 99 -0.1 SSE 37 59 20 32 - - 0.2
12/07:30am -1.8 -10.7 -1.9 99 -0.1 SSE 35 44 19 24 - - 0.2
12/07:00am -2.1 -11.0 -2.2 99 -0.1 S 35 43 19 23 - - 0.2
12/06:30am -2.2 -11.9 -2.3 99 -0.1 S 39 46 21 25 - - 0.2
12/06:00am -2.3 -12.8 -2.4 99 -0.1 S 43 52 23 28 - - 0.2
12/05:30am -2.6 -13.3 -2.7 99 -0.1 S 44 54 24 29 - - 0.2
12/05:00am -2.5 -15.5 -2.6 99 -0.1 S 56 63 30 34 - - 0.2
12/04:30am -2.8 -15.8 -2.9 99 -0.1 S 56 74 30 40 - - 0.2
12/04:00am -3.1 -17.1 -3.2 99 -0.1 S 61 80 33 43 - - 0.2
12/03:30am -3.1 -16.1 -3.2 99 -0.1 S 56 78 30 42 - - 0.2
12/03:00am -3.0 -14.5 -3.1 99 -0.1 S 48 67 26 36 - - 0.2
12/02:46am -2.9 -13.5 -3.0 99 -0.1 S 43 67 23 36 - - 0.2
12/02:30am -2.8 -11.8 -2.9 99 -0.1 S 35 44 19 24 - - 0.2
12/02:15am -2.9 -11.9 -3.0 99 -0.1 S 35 54 19 29 - - 0.2
12/02:00am -3.0 -13.8 -3.1 99 -0.1 S 44 59 24 32 - - 0.2
12/01:55am -3.1 -13.3 -3.2 99 -0.1 S 41 59 22 32 - - 0.2
12/01:30am -2.8 -12.2 -2.9 99 -0.1 S 37 52 20 28 - - 0.2
12/01:00am -2.9 -12.7 -3.0 99 -0.1 S 39 54 21 29 - - 0.2
12/12:30am -2.9 -11.9 -3.0 99 -0.1 S 35 54 19 29 - - 0.2
12/12:00am -3.0 -12.4 -3.1 99 -0.1 S 37 52 20 28 - - 0.2
 
Date/Time
EST
Temp
°C
App
Temp
°C
Dew
Point
°C
Rel
Hum
%
Delta-T
°C
Wind Press
QNH
hPa
Press
MSL
hPa
Rain since
9am
mm
Dir  Spd
km/h
Gust
km/h
Spd
kts
Gust
kts
11/11:39pm -3.0 -12.4 -3.1 99 -0.1 S 37 72 20 39 - - 0.2
11/11:30pm -2.9 -11.9 -3.0 99 -0.1 S 35 48 19 26 - - 0.2
11/11:08pm -2.9 -11.4 -3.0 99 -0.1 S 32 50 17 27 - - 0.2
11/11:00pm -2.9 -11.4 -3.0 99 -0.1 S 32 46 17 25 - - 0.2
11/10:46pm -3.0 -11.7 -3.1 99 -0.1 S 33 56 18 30 - - 0.2
11/10:30pm -2.9 -11.9 -3.0 99 -0.1 S 35 50 19 27 - - 0.2
11/10:01pm -2.9 -11.9 -3.0 99 -0.1 S 35 54 19 29 - - 0.2
11/10:00pm -2.9 -12.3 -3.0 99 -0.1 S 37 54 20 29 - - 0.2
11/09:30pm -2.8 -11.8 -2.9 99 -0.1 S 35 50 19 27 - - 0.2
11/09:20pm -2.8 -10.9 -2.9 99 -0.1 S 30 52 16 28 - - 0.2
11/09:00pm -2.7 -10.4 -2.8 99 -0.1 S 28 39 15 21 - - 0.2
11/08:31pm -2.7 -11.7 -2.8 99 -0.1 S 35 54 19 29 - - 0.2
11/08:30pm -2.7 -11.3 -2.8 99 -0.1 S 33 46 18 25 - - 0.2
11/08:00pm -2.6 -10.6 -2.7 99 -0.1 SSW 30 43 16 23 - - 0.2
11/07:30pm -2.6 -10.3 -2.7 99 -0.1 SSW 28 41 15 22 - - 0.2
11/07:15pm -2.7 -10.4 -2.8 99 -0.1 SSW 28 46 15 25 - - 0.2
11/07:00pm -2.7 -9.6 -2.8 99 -0.1 SSW 24 43 13 23 - - 0.2
11/06:30pm -2.7 -10.8 -2.8 99 -0.1 SSW 30 43 16 23 - - 0.2
11/06:00pm -2.8 -11.3 -2.9 99 -0.1 SSW 32 43 17 23 - - 0.2
11/05:30pm -2.9 -13.5 -3.0 99 -0.1 SSW 43 61 23 33 - - 0.2
11/05:26pm -3.0 -13.2 -3.1 99 -0.1 SSW 41 61 22 33 - - 0.2
11/05:00pm -2.5 -11.9 -2.6 99 -0.1 SSW 37 54 20 29 - - 0.2
11/04:30pm -2.8 -11.8 -2.9 99 -0.1 SSW 35 54 19 29 - - 0.2
11/04:10pm -2.8 -12.2 -2.9 99 -0.1 SSW 37 59 20 32 - - 0.2
11/04:09pm -2.7 -12.1 -2.8 99 -0.1 SSW 37 52 20 28 - - 0.2
11/04:00pm -2.2 -8.3 -2.3 99 -0.1 S 20 39 11 21 - - 0.2
11/03:30pm -2.2 -9.8 -2.3 99 -0.1 SSW 28 41 15 22 - - 0.2
11/03:00pm -2.2 -8.7 -2.3 99 -0.1 SW 22 33 12 18 - - 0.2

Other formats

Comma delimited format used in spreadsheet applications
http://www.bom.gov.au/fwo/IDV60801/IDV60801.94906.axf

JavaScript Object Notation format (JSON) in row-major order
http://www.bom.gov.au/fwo/IDV60801/IDV60801.94906.json

Data quality

Most of these data are generated automatically and are frequently updated. Quality checks on data are not normally performed. It is possible for incorrect values to appear. Refer to information at About Latest Weather Observations and please check the disclaimer before using these data.